sensor_id;sensor_type;location;lat;lon;timestamp;pressure;altitude;pressure_sealevel;temperature;humidity
35226;BME280;21813;49.686;21.766;2023-06-04T00:00:07;98827.03;;;8.11;97.32
35226;BME280;21813;49.686;21.766;2023-06-04T00:02:37;98819.63;;;8.05;98.19
35226;BME280;21813;49.686;21.766;2023-06-04T00:05:03;98809.53;;;8.00;97.79
35226;BME280;21813;49.686;21.766;2023-06-04T00:07:36;98797.97;;;7.91;97.62
35226;BME280;21813;49.686;21.766;2023-06-04T00:10:09;98822.13;;;8.06;98.03
35226;BME280;21813;49.686;21.766;2023-06-04T00:12:36;98796.13;;;7.93;97.30
35226;BME280;21813;49.686;21.766;2023-06-04T00:15:02;98811.13;;;8.03;97.30
35226;BME280;21813;49.686;21.766;2023-06-04T00:17:30;98803.81;;;7.95;97.92
35226;BME280;21813;49.686;21.766;2023-06-04T00:19:56;98802.16;;;7.94;97.86
35226;BME280;21813;49.686;21.766;2023-06-04T00:22:22;98801.59;;;7.89;97.55
35226;BME280;21813;49.686;21.766;2023-06-04T00:24:49;98790.31;;;7.76;98.02
35226;BME280;21813;49.686;21.766;2023-06-04T00:27:15;98798.47;;;7.70;98.67
35226;BME280;21813;49.686;21.766;2023-06-04T00:29:41;98803.00;;;7.66;99.78
35226;BME280;21813;49.686;21.766;2023-06-04T00:32:07;98800.06;;;7.58;99.44
35226;BME280;21813;49.686;21.766;2023-06-04T00:34:33;98801.53;;;7.62;99.63
35226;BME280;21813;49.686;21.766;2023-06-04T00:37:00;98812.91;;;7.60;99.63
35226;BME280;21813;49.686;21.766;2023-06-04T00:39:29;98807.84;;;7.58;100.00
35226;BME280;21813;49.686;21.766;2023-06-04T00:41:57;98807.72;;;7.60;100.00
35226;BME280;21813;49.686;21.766;2023-06-04T00:44:22;98802.09;;;7.53;99.61
35226;BME280;21813;49.686;21.766;2023-06-04T00:46:51;98813.31;;;7.53;99.86
35226;BME280;21813;49.686;21.766;2023-06-04T00:49:19;98811.78;;;7.49;99.42
35226;BME280;21813;49.686;21.766;2023-06-04T00:51:46;98798.75;;;7.37;99.61
35226;BME280;21813;49.686;21.766;2023-06-04T00:54:12;98798.47;;;7.41;99.76
35226;BME280;21813;49.686;21.766;2023-06-04T00:56:39;98788.44;;;7.35;100.00
35226;BME280;21813;49.686;21.766;2023-06-04T00:59:07;98803.50;;;7.44;99.32
35226;BME280;21813;49.686;21.766;2023-06-04T01:04:11;98778.75;;;7.39;99.48
35226;BME280;21813;49.686;21.766;2023-06-04T01:06:45;98776.59;;;7.31;99.72
35226;BME280;21813;49.686;21.766;2023-06-04T01:09:15;98780.16;;;7.30;100.00
35226;BME280;21813;49.686;21.766;2023-06-04T01:11:42;98773.06;;;7.18;100.00
35226;BME280;21813;49.686;21.766;2023-06-04T01:14:09;98789.38;;;7.20;100.00
35226;BME280;21813;49.686;21.766;2023-06-04T01:16:58;98780.56;;;7.08;100.00
35226;BME280;21813;49.686;21.766;2023-06-04T01:19:54;98781.59;;;7.06;100.00
35226;BME280;21813;49.686;21.766;2023-06-04T01:22:33;98778.44;;;7.01;100.00
35226;BME280;21813;49.686;21.766;2023-06-04T01:25:04;98778.97;;;6.92;100.00
35226;BME280;21813;49.686;21.766;2023-06-04T01:27:31;98770.81;;;6.84;100.00
35226;BME280;21813;49.686;21.766;2023-06-04T01:29:58;98760.63;;;6.81;100.00
35226;BME280;21813;49.686;21.766;2023-06-04T01:32:28;98765.72;;;6.82;100.00
35226;BME280;21813;49.686;21.766;2023-06-04T01:34:55;98765.66;;;6.84;100.00
35226;BME280;21813;49.686;21.766;2023-06-04T01:37:22;98767.41;;;6.83;100.00
35226;BME280;21813;49.686;21.766;2023-06-04T01:39:47;98771.41;;;6.89;100.00
35226;BME280;21813;49.686;21.766;2023-06-04T01:42:16;98773.97;;;6.89;100.00
35226;BME280;21813;49.686;21.766;2023-06-04T01:44:41;98762.28;;;6.82;100.00
35226;BME280;21813;49.686;21.766;2023-06-04T01:47:09;98782.56;;;6.89;100.00
35226;BME280;21813;49.686;21.766;2023-06-04T01:49:34;98771.66;;;6.84;100.00
35226;BME280;21813;49.686;21.766;2023-06-04T01:52:02;98780.63;;;6.79;100.00
35226;BME280;21813;49.686;21.766;2023-06-04T01:54:28;98784.31;;;6.75;100.00
35226;BME280;21813;49.686;21.766;2023-06-04T01:56:57;98772.03;;;6.62;100.00
35226;BME280;21813;49.686;21.766;2023-06-04T01:59:22;98774.06;;;6.57;100.00
35226;BME280;21813;49.686;21.766;2023-06-04T02:01:50;98784.59;;;6.54;100.00
35226;BME280;21813;49.686;21.766;2023-06-04T02:04:16;98779.75;;;6.48;100.00
35226;BME280;21813;49.686;21.766;2023-06-04T02:06:43;98782.81;;;6.41;100.00
35226;BME280;21813;49.686;21.766;2023-06-04T02:09:09;98797.16;;;6.46;100.00
35226;BME280;21813;49.686;21.766;2023-06-04T02:11:35;98795.66;;;6.42;100.00
35226;BME280;21813;49.686;21.766;2023-06-04T02:14:01;98778.97;;;6.32;100.00
35226;BME280;21813;49.686;21.766;2023-06-04T02:16:28;98797.50;;;6.40;100.00
35226;BME280;21813;49.686;21.766;2023-06-04T02:18:54;98796.19;;;6.33;100.00
35226;BME280;21813;49.686;21.766;2023-06-04T02:21:20;98788.00;;;6.25;100.00
35226;BME280;21813;49.686;21.766;2023-06-04T02:23:46;98799.09;;;6.27;100.00
35226;BME280;21813;49.686;21.766;2023-06-04T02:26:12;98791.53;;;6.24;100.00
35226;BME280;21813;49.686;21.766;2023-06-04T02:28:38;98788.34;;;6.19;100.00
35226;BME280;21813;49.686;21.766;2023-06-04T02:31:04;98791.09;;;6.16;100.00
35226;BME280;21813;49.686;21.766;2023-06-04T02:33:30;98799.03;;;6.13;100.00
35226;BME280;21813;49.686;21.766;2023-06-04T02:35:56;98786.84;;;5.99;100.00
35226;BME280;21813;49.686;21.766;2023-06-04T02:38:22;98771.16;;;5.87;100.00
35226;BME280;21813;49.686;21.766;2023-06-04T02:40:49;98796.69;;;5.93;100.00
35226;BME280;21813;49.686;21.766;2023-06-04T02:43:14;98793.25;;;5.92;100.00
35226;BME280;21813;49.686;21.766;2023-06-04T02:45:42;98795.03;;;5.92;100.00
35226;BME280;21813;49.686;21.766;2023-06-04T02:48:08;98801.84;;;5.93;100.00
35226;BME280;21813;49.686;21.766;2023-06-04T02:50:35;98795.31;;;5.86;100.00
35226;BME280;21813;49.686;21.766;2023-06-04T02:53:01;98792.69;;;5.87;100.00
35226;BME280;21813;49.686;21.766;2023-06-04T02:55:28;98795.19;;;5.89;100.00
35226;BME280;21813;49.686;21.766;2023-06-04T02:57:54;98799.38;;;5.91;100.00
35226;BME280;21813;49.686;21.766;2023-06-04T03:00:21;98793.66;;;5.85;100.00
35226;BME280;21813;49.686;21.766;2023-06-04T03:02:47;98798.53;;;5.91;100.00
35226;BME280;21813;49.686;21.766;2023-06-04T03:05:15;98808.53;;;5.97;100.00
35226;BME280;21813;49.686;21.766;2023-06-04T03:07:44;98800.22;;;5.92;100.00
35226;BME280;21813;49.686;21.766;2023-06-04T03:10:13;98785.75;;;5.88;100.00
35226;BME280;21813;49.686;21.766;2023-06-04T03:12:40;98803.03;;;6.03;100.00
35226;BME280;21813;49.686;21.766;2023-06-04T03:15:08;98791.38;;;5.96;100.00
35226;BME280;21813;49.686;21.766;2023-06-04T03:17:33;98794.34;;;6.04;100.00
35226;BME280;21813;49.686;21.766;2023-06-04T03:20:00;98796.50;;;6.11;100.00
35226;BME280;21813;49.686;21.766;2023-06-04T03:22:26;98797.94;;;6.17;100.00
35226;BME280;21813;49.686;21.766;2023-06-04T03:24:53;98796.94;;;6.19;100.00
35226;BME280;21813;49.686;21.766;2023-06-04T03:27:19;98768.97;;;6.10;100.00
35226;BME280;21813;49.686;21.766;2023-06-04T03:29:47;98790.44;;;6.28;100.00
35226;BME280;21813;49.686;21.766;2023-06-04T03:32:13;98762.53;;;6.17;100.00
35226;BME280;21813;49.686;21.766;2023-06-04T03:34:39;98789.16;;;6.35;100.00
35226;BME280;21813;49.686;21.766;2023-06-04T03:37:06;98788.16;;;6.38;100.00
35226;BME280;21813;49.686;21.766;2023-06-04T03:39:33;98784.63;;;6.39;100.00
35226;BME280;21813;49.686;21.766;2023-06-04T03:41:59;98786.97;;;6.43;100.00
35226;BME280;21813;49.686;21.766;2023-06-04T03:44:26;98778.59;;;6.38;100.00
35226;BME280;21813;49.686;21.766;2023-06-04T03:46:52;98791.53;;;6.54;100.00
35226;BME280;21813;49.686;21.766;2023-06-04T03:49:20;98791.63;;;6.52;100.00
35226;BME280;21813;49.686;21.766;2023-06-04T03:51:47;98796.44;;;6.58;100.00
35226;BME280;21813;49.686;21.766;2023-06-04T03:54:14;98797.22;;;6.60;100.00
35226;BME280;21813;49.686;21.766;2023-06-04T03:56:45;98810.38;;;6.72;100.00
35226;BME280;21813;49.686;21.766;2023-06-04T03:59:12;98808.19;;;6.80;100.00
35226;BME280;21813;49.686;21.766;2023-06-04T04:01:38;98799.41;;;6.82;100.00
35226;BME280;21813;49.686;21.766;2023-06-04T04:04:05;98804.69;;;6.95;100.00
35226;BME280;21813;49.686;21.766;2023-06-04T04:06:31;98808.16;;;7.09;100.00
35226;BME280;21813;49.686;21.766;2023-06-04T04:08:58;98801.59;;;7.18;100.00
35226;BME280;21813;49.686;21.766;2023-06-04T04:11:24;98789.84;;;7.27;100.00
35226;BME280;21813;49.686;21.766;2023-06-04T04:13:53;98802.19;;;7.51;100.00
35226;BME280;21813;49.686;21.766;2023-06-04T04:16:18;98792.81;;;7.63;100.00
35226;BME280;21813;49.686;21.766;2023-06-04T04:18:45;98799.38;;;7.83;100.00
35226;BME280;21813;49.686;21.766;2023-06-04T04:21:11;98795.47;;;7.90;99.92
35226;BME280;21813;49.686;21.766;2023-06-04T04:23:39;98796.56;;;8.00;98.57
35226;BME280;21813;49.686;21.766;2023-06-04T04:26:08;98777.66;;;7.98;99.39
35226;BME280;21813;49.686;21.766;2023-06-04T04:28:36;98804.22;;;8.30;99.45
35226;BME280;21813;49.686;21.766;2023-06-04T04:31:02;98800.94;;;8.40;99.13
35226;BME280;21813;49.686;21.766;2023-06-04T04:33:29;98805.97;;;8.56;98.93
35226;BME280;21813;49.686;21.766;2023-06-04T04:35:58;98807.88;;;8.67;97.86
35226;BME280;21813;49.686;21.766;2023-06-04T04:38:29;98810.81;;;8.75;97.55
35226;BME280;21813;49.686;21.766;2023-06-04T04:40:55;98789.84;;;8.78;97.48
35226;BME280;21813;49.686;21.766;2023-06-04T04:43:32;98805.53;;;8.89;97.25
35226;BME280;21813;49.686;21.766;2023-06-04T04:45:58;98796.72;;;8.92;96.66
35226;BME280;21813;49.686;21.766;2023-06-04T04:48:25;98790.47;;;8.94;96.24
35226;BME280;21813;49.686;21.766;2023-06-04T04:50:52;98791.53;;;9.04;95.85
35226;BME280;21813;49.686;21.766;2023-06-04T04:53:18;98797.25;;;9.09;95.79
35226;BME280;21813;49.686;21.766;2023-06-04T04:55:44;98788.53;;;9.10;94.97
35226;BME280;21813;49.686;21.766;2023-06-04T04:58:12;98782.38;;;9.11;94.90
35226;BME280;21813;49.686;21.766;2023-06-04T05:00:37;98806.72;;;9.36;94.85
35226;BME280;21813;49.686;21.766;2023-06-04T05:03:05;98815.56;;;9.46;93.34
35226;BME280;21813;49.686;21.766;2023-06-04T05:05:32;98804.63;;;9.53;92.60
35226;BME280;21813;49.686;21.766;2023-06-04T05:07:59;98792.75;;;9.62;92.78
35226;BME280;21813;49.686;21.766;2023-06-04T05:10:25;98793.34;;;9.91;91.83
35226;BME280;21813;49.686;21.766;2023-06-04T05:12:53;98803.28;;;10.46;89.17
35226;BME280;21813;49.686;21.766;2023-06-04T05:15:18;98787.94;;;10.54;87.92
35226;BME280;21813;49.686;21.766;2023-06-04T05:17:46;98799.56;;;10.61;87.66
35226;BME280;21813;49.686;21.766;2023-06-04T05:20:13;98778.19;;;10.45;85.97
35226;BME280;21813;49.686;21.766;2023-06-04T05:22:41;98796.38;;;10.57;86.31
35226;BME280;21813;49.686;21.766;2023-06-04T05:25:09;98781.06;;;10.53;86.15
35226;BME280;21813;49.686;21.766;2023-06-04T05:27:37;98771.13;;;10.58;85.34
35226;BME280;21813;49.686;21.766;2023-06-04T05:30:04;98781.38;;;10.72;85.74
35226;BME280;21813;49.686;21.766;2023-06-04T05:32:31;98787.44;;;10.73;85.88
35226;BME280;21813;49.686;21.766;2023-06-04T05:34:58;98794.44;;;10.83;85.16
35226;BME280;21813;49.686;21.766;2023-06-04T05:37:26;98796.59;;;10.89;84.90
35226;BME280;21813;49.686;21.766;2023-06-04T05:39:58;98770.13;;;10.83;84.97
35226;BME280;21813;49.686;21.766;2023-06-04T05:42:25;98794.16;;;10.99;84.11
35226;BME280;21813;49.686;21.766;2023-06-04T05:44:51;98777.66;;;10.98;80.09
35226;BME280;21813;49.686;21.766;2023-06-04T05:47:18;98762.47;;;10.92;78.72
35226;BME280;21813;49.686;21.766;2023-06-04T05:49:44;98795.47;;;11.16;79.89
35226;BME280;21813;49.686;21.766;2023-06-04T05:52:10;98792.44;;;11.33;80.74
35226;BME280;21813;49.686;21.766;2023-06-04T05:54:36;98782.72;;;11.68;80.09
35226;BME280;21813;49.686;21.766;2023-06-04T05:57:06;98783.25;;;12.38;75.85
35226;BME280;21813;49.686;21.766;2023-06-04T05:59:32;98775.13;;;12.42;73.93
35226;BME280;21813;49.686;21.766;2023-06-04T06:01:58;98787.63;;;12.38;73.16
35226;BME280;21813;49.686;21.766;2023-06-04T06:04:25;98791.00;;;12.29;73.34
35226;BME280;21813;49.686;21.766;2023-06-04T06:06:52;98794.28;;;12.31;75.05
35226;BME280;21813;49.686;21.766;2023-06-04T06:09:17;98790.53;;;12.24;73.44
35226;BME280;21813;49.686;21.766;2023-06-04T06:11:44;98792.31;;;12.12;74.13
35226;BME280;21813;49.686;21.766;2023-06-04T06:14:10;98790.78;;;12.10;73.85
35226;BME280;21813;49.686;21.766;2023-06-04T06:16:38;98796.91;;;12.31;75.59
35226;BME280;21813;49.686;21.766;2023-06-04T06:19:04;98795.28;;;12.62;72.70
35226;BME280;21813;49.686;21.766;2023-06-04T06:21:33;98777.59;;;12.54;71.84
35226;BME280;21813;49.686;21.766;2023-06-04T06:23:58;98784.22;;;12.58;72.63
35226;BME280;21813;49.686;21.766;2023-06-04T06:26:24;98778.75;;;12.61;72.22
35226;BME280;21813;49.686;21.766;2023-06-04T06:28:50;98770.09;;;12.61;72.94
35226;BME280;21813;49.686;21.766;2023-06-04T06:31:17;98791.47;;;12.66;72.11
35226;BME280;21813;49.686;21.766;2023-06-04T06:33:43;98789.88;;;12.74;72.71
35226;BME280;21813;49.686;21.766;2023-06-04T06:36:11;98793.91;;;12.78;71.80
35226;BME280;21813;49.686;21.766;2023-06-04T06:38:39;98789.22;;;12.82;71.72
35226;BME280;21813;49.686;21.766;2023-06-04T06:41:07;98776.69;;;12.76;71.90
35226;BME280;21813;49.686;21.766;2023-06-04T06:43:33;98788.34;;;12.93;71.88
35226;BME280;21813;49.686;21.766;2023-06-04T06:45:59;98783.69;;;12.96;71.17
35226;BME280;21813;49.686;21.766;2023-06-04T06:48:26;98798.25;;;13.10;67.82
35226;BME280;21813;49.686;21.766;2023-06-04T06:50:54;98769.16;;;13.03;67.52
35226;BME280;21813;49.686;21.766;2023-06-04T06:53:20;98793.56;;;13.24;66.99
35226;BME280;21813;49.686;21.766;2023-06-04T06:55:46;98800.88;;;13.51;66.35
35226;BME280;21813;49.686;21.766;2023-06-04T06:58:12;98778.72;;;13.95;64.87
35226;BME280;21813;49.686;21.766;2023-06-04T07:00:40;98777.34;;;14.50;63.19
35226;BME280;21813;49.686;21.766;2023-06-04T07:03:06;98772.50;;;14.75;62.77
35226;BME280;21813;49.686;21.766;2023-06-04T07:05:35;98779.41;;;14.85;60.42
35226;BME280;21813;49.686;21.766;2023-06-04T07:08:00;98788.09;;;14.86;60.63
35226;BME280;21813;49.686;21.766;2023-06-04T07:10:29;98787.44;;;14.74;60.20
35226;BME280;21813;49.686;21.766;2023-06-04T07:12:55;98776.66;;;14.68;60.81
35226;BME280;21813;49.686;21.766;2023-06-04T07:15:22;98773.06;;;14.59;60.10
35226;BME280;21813;49.686;21.766;2023-06-04T07:17:50;98791.00;;;14.64;61.65
35226;BME280;21813;49.686;21.766;2023-06-04T07:20:17;98781.06;;;14.57;63.11
35226;BME280;21813;49.686;21.766;2023-06-04T07:22:43;98792.78;;;14.63;61.93
35226;BME280;21813;49.686;21.766;2023-06-04T07:25:09;98774.72;;;14.50;61.33
35226;BME280;21813;49.686;21.766;2023-06-04T07:27:35;98801.78;;;14.51;60.86
35226;BME280;21813;49.686;21.766;2023-06-04T07:30:01;98786.84;;;14.42;62.02
35226;BME280;21813;49.686;21.766;2023-06-04T07:32:27;98788.50;;;14.52;62.28
35226;BME280;21813;49.686;21.766;2023-06-04T07:34:54;98794.59;;;14.72;63.02
35226;BME280;21813;49.686;21.766;2023-06-04T07:37:20;98784.38;;;14.79;62.85
35226;BME280;21813;49.686;21.766;2023-06-04T07:39:46;98781.75;;;14.98;59.81
35226;BME280;21813;49.686;21.766;2023-06-04T07:42:13;98778.41;;;15.06;59.33
35226;BME280;21813;49.686;21.766;2023-06-04T07:44:41;98787.53;;;15.21;57.29
35226;BME280;21813;49.686;21.766;2023-06-04T07:47:07;98796.47;;;15.37;59.12
35226;BME280;21813;49.686;21.766;2023-06-04T07:49:34;98782.59;;;15.45;57.84
35226;BME280;21813;49.686;21.766;2023-06-04T07:52:00;98782.47;;;15.56;57.93
35226;BME280;21813;49.686;21.766;2023-06-04T07:54:28;98775.34;;;15.76;58.30
35226;BME280;21813;49.686;21.766;2023-06-04T07:56:53;98793.50;;;15.97;55.69
35226;BME280;21813;49.686;21.766;2023-06-04T07:59:22;98785.16;;;16.01;55.31
35226;BME280;21813;49.686;21.766;2023-06-04T08:01:50;98777.72;;;15.97;55.56
35226;BME280;21813;49.686;21.766;2023-06-04T08:04:18;98802.03;;;16.08;56.58
35226;BME280;21813;49.686;21.766;2023-06-04T08:06:44;98792.56;;;16.15;57.09
35226;BME280;21813;49.686;21.766;2023-06-04T08:09:12;98796.94;;;16.24;56.53
35226;BME280;21813;49.686;21.766;2023-06-04T08:11:40;98775.91;;;16.24;57.23
35226;BME280;21813;49.686;21.766;2023-06-04T08:14:07;98791.13;;;16.48;57.83
35226;BME280;21813;49.686;21.766;2023-06-04T08:16:32;98787.88;;;16.64;56.44
35226;BME280;21813;49.686;21.766;2023-06-04T08:18:59;98772.91;;;16.64;55.90
35226;BME280;21813;49.686;21.766;2023-06-04T08:21:25;98787.78;;;16.73;54.86
35226;BME280;21813;49.686;21.766;2023-06-04T08:23:53;98789.97;;;16.78;55.56
35226;BME280;21813;49.686;21.766;2023-06-04T08:26:19;98784.69;;;16.78;56.36
35226;BME280;21813;49.686;21.766;2023-06-04T08:28:50;98791.06;;;16.93;56.93
35226;BME280;21813;49.686;21.766;2023-06-04T08:31:17;98793.84;;;17.09;56.28
35226;BME280;21813;49.686;21.766;2023-06-04T08:33:47;98798.84;;;17.20;55.38
35226;BME280;21813;49.686;21.766;2023-06-04T08:36:13;98800.28;;;17.33;55.65
35226;BME280;21813;49.686;21.766;2023-06-04T08:38:41;98800.06;;;17.52;54.63
35226;BME280;21813;49.686;21.766;2023-06-04T08:41:15;98806.75;;;17.64;53.70
35226;BME280;21813;49.686;21.766;2023-06-04T08:43:45;98810.75;;;17.76;54.44
35226;BME280;21813;49.686;21.766;2023-06-04T08:46:13;98800.94;;;17.86;54.69
35226;BME280;21813;49.686;21.766;2023-06-04T08:48:40;98782.16;;;17.89;54.24
35226;BME280;21813;49.686;21.766;2023-06-04T08:51:07;98781.22;;;17.98;53.92
35226;BME280;21813;49.686;21.766;2023-06-04T08:53:37;98790.47;;;18.10;53.25
35226;BME280;21813;49.686;21.766;2023-06-04T08:56:06;98787.69;;;18.12;51.21
35226;BME280;21813;49.686;21.766;2023-06-04T08:58:36;98785.31;;;17.93;51.58
35226;BME280;21813;49.686;21.766;2023-06-04T09:01:02;98783.88;;;17.73;52.32
35226;BME280;21813;49.686;21.766;2023-06-04T09:03:29;98802.69;;;17.78;52.87
35226;BME280;21813;49.686;21.766;2023-06-04T09:05:59;98804.22;;;17.80;53.67
35226;BME280;21813;49.686;21.766;2023-06-04T09:08:31;98801.25;;;17.83;53.23
35226;BME280;21813;49.686;21.766;2023-06-04T09:10:57;98771.53;;;17.73;53.99
35226;BME280;21813;49.686;21.766;2023-06-04T09:13:28;98804.16;;;18.06;54.99
35226;BME280;21813;49.686;21.766;2023-06-04T09:16:02;98800.06;;;18.20;53.46
35226;BME280;21813;49.686;21.766;2023-06-04T09:18:29;98793.47;;;18.16;51.39
35226;BME280;21813;49.686;21.766;2023-06-04T09:21:03;98796.25;;;18.14;52.09
35226;BME280;21813;49.686;21.766;2023-06-04T09:23:47;98770.34;;;18.01;53.83
35226;BME280;21813;49.686;21.766;2023-06-04T09:26:13;98793.19;;;18.35;52.79
35226;BME280;21813;49.686;21.766;2023-06-04T09:28:46;98788.06;;;18.25;51.04
35226;BME280;21813;49.686;21.766;2023-06-04T09:31:15;98794.81;;;18.28;51.74
35226;BME280;21813;49.686;21.766;2023-06-04T09:33:49;98773.69;;;18.12;50.64
35226;BME280;21813;49.686;21.766;2023-06-04T09:36:16;98784.56;;;18.17;50.77
35226;BME280;21813;49.686;21.766;2023-06-04T09:38:43;98758.47;;;18.05;50.69
35226;BME280;21813;49.686;21.766;2023-06-04T09:41:13;98758.81;;;18.10;52.08
35226;BME280;21813;49.686;21.766;2023-06-04T09:43:42;98794.19;;;18.42;52.17
35226;BME280;21813;49.686;21.766;2023-06-04T09:46:09;98787.94;;;18.43;50.31
35226;BME280;21813;49.686;21.766;2023-06-04T09:48:39;98775.56;;;18.35;52.96
35226;BME280;21813;49.686;21.766;2023-06-04T09:51:13;98758.84;;;18.27;50.41
35226;BME280;21813;49.686;21.766;2023-06-04T09:53:42;98766.13;;;18.41;50.96
35226;BME280;21813;49.686;21.766;2023-06-04T09:56:07;98780.72;;;18.53;50.25
35226;BME280;21813;49.686;21.766;2023-06-04T09:58:38;98768.47;;;18.52;49.51
35226;BME280;21813;49.686;21.766;2023-06-04T10:01:05;98770.50;;;18.66;50.08
35226;BME280;21813;49.686;21.766;2023-06-04T10:03:35;98772.81;;;18.69;49.08
35226;BME280;21813;49.686;21.766;2023-06-04T10:06:04;98771.50;;;18.65;48.70
35226;BME280;21813;49.686;21.766;2023-06-04T10:08:31;98796.91;;;18.74;47.59
35226;BME280;21813;49.686;21.766;2023-06-04T10:11:01;98792.31;;;18.84;50.39
35226;BME280;21813;49.686;21.766;2023-06-04T10:13:31;98795.13;;;18.99;49.74
35226;BME280;21813;49.686;21.766;2023-06-04T10:16:00;98790.00;;;19.14;49.36
35226;BME280;21813;49.686;21.766;2023-06-04T10:18:44;98762.56;;;19.15;47.36
35226;BME280;21813;49.686;21.766;2023-06-04T10:21:13;98774.44;;;19.35;47.69
35226;BME280;21813;49.686;21.766;2023-06-04T10:23:39;98780.06;;;19.48;47.36
35226;BME280;21813;49.686;21.766;2023-06-04T10:26:07;98775.28;;;19.44;45.80
35226;BME280;21813;49.686;21.766;2023-06-04T10:28:34;98785.00;;;19.43;46.80
35226;BME280;21813;49.686;21.766;2023-06-04T10:31:04;98773.28;;;19.37;45.44
35226;BME280;21813;49.686;21.766;2023-06-04T10:33:31;98784.69;;;19.30;45.68
35226;BME280;21813;49.686;21.766;2023-06-04T10:36:15;98766.03;;;19.15;46.68
35226;BME280;21813;49.686;21.766;2023-06-04T10:41:15;98771.63;;;19.28;44.88
35226;BME280;21813;49.686;21.766;2023-06-04T10:43:48;98756.28;;;19.24;46.21
35226;BME280;21813;49.686;21.766;2023-06-04T10:46:19;98763.38;;;19.39;45.92
35226;BME280;21813;49.686;21.766;2023-06-04T10:48:53;98776.41;;;19.57;46.16
35226;BME280;21813;49.686;21.766;2023-06-04T10:51:34;98767.13;;;19.69;46.88
35226;BME280;21813;49.686;21.766;2023-06-04T10:54:03;98765.09;;;19.79;47.05
35226;BME280;21813;49.686;21.766;2023-06-04T10:56:31;98765.91;;;19.88;44.56
35226;BME280;21813;49.686;21.766;2023-06-04T10:59:18;98782.56;;;19.97;44.79
35226;BME280;21813;49.686;21.766;2023-06-04T11:01:45;98754.88;;;19.76;43.62
35226;BME280;21813;49.686;21.766;2023-06-04T11:04:24;98744.78;;;19.72;44.02
35226;BME280;21813;49.686;21.766;2023-06-04T11:07:04;98765.72;;;19.90;45.60
35226;BME280;21813;49.686;21.766;2023-06-04T11:09:38;98769.78;;;20.08;47.25
35226;BME280;21813;49.686;21.766;2023-06-04T11:12:13;98765.56;;;20.22;48.41
35226;BME280;21813;49.686;21.766;2023-06-04T11:14:39;98774.69;;;20.50;46.30
35226;BME280;21813;49.686;21.766;2023-06-04T11:17:13;98761.22;;;20.60;44.76
35226;BME280;21813;49.686;21.766;2023-06-04T11:19:39;98758.34;;;20.69;44.55
35226;BME280;21813;49.686;21.766;2023-06-04T11:22:10;98764.53;;;20.85;41.74
35226;BME280;21813;49.686;21.766;2023-06-04T11:24:39;98779.00;;;20.97;43.37
35226;BME280;21813;49.686;21.766;2023-06-04T11:27:06;98761.44;;;20.96;42.31
35226;BME280;21813;49.686;21.766;2023-06-04T11:29:32;98762.38;;;21.03;42.10
35226;BME280;21813;49.686;21.766;2023-06-04T11:31:59;98770.97;;;21.05;43.19
35226;BME280;21813;49.686;21.766;2023-06-04T11:34:29;98765.66;;;21.05;44.50
35226;BME280;21813;49.686;21.766;2023-06-04T11:37:07;98764.31;;;21.09;44.33
35226;BME280;21813;49.686;21.766;2023-06-04T11:39:34;98765.97;;;21.10;43.48
35226;BME280;21813;49.686;21.766;2023-06-04T11:42:04;98765.66;;;21.13;43.59
35226;BME280;21813;49.686;21.766;2023-06-04T11:44:31;98759.63;;;20.96;44.33
35226;BME280;21813;49.686;21.766;2023-06-04T11:47:00;98763.47;;;20.94;45.41
35226;BME280;21813;49.686;21.766;2023-06-04T11:49:27;98765.38;;;21.00;44.94
35226;BME280;21813;49.686;21.766;2023-06-04T11:51:58;98767.09;;;21.15;43.89
35226;BME280;21813;49.686;21.766;2023-06-04T11:54:23;98772.44;;;21.30;45.55
35226;BME280;21813;49.686;21.766;2023-06-04T11:56:51;98752.88;;;21.31;44.63
35226;BME280;21813;49.686;21.766;2023-06-04T11:59:17;98760.47;;;21.49;40.94
35226;BME280;21813;49.686;21.766;2023-06-04T12:01:45;98763.03;;;21.57;40.28
35226;BME280;21813;49.686;21.766;2023-06-04T12:04:20;98748.94;;;21.56;40.16
35226;BME280;21813;49.686;21.766;2023-06-04T12:07:11;98753.97;;;21.66;41.67
35226;BME280;21813;49.686;21.766;2023-06-04T12:09:40;98754.09;;;21.73;41.79
35226;BME280;21813;49.686;21.766;2023-06-04T12:12:21;98769.34;;;21.85;41.64
35226;BME280;21813;49.686;21.766;2023-06-04T12:14:57;98759.72;;;21.84;41.75
35226;BME280;21813;49.686;21.766;2023-06-04T12:17:25;98779.00;;;22.01;41.07
35226;BME280;21813;49.686;21.766;2023-06-04T12:19:51;98776.34;;;22.01;40.62
35226;BME280;21813;49.686;21.766;2023-06-04T12:22:19;98743.69;;;21.92;39.12
35226;BME280;21813;49.686;21.766;2023-06-04T12:24:56;98762.03;;;22.02;39.08
35226;BME280;21813;49.686;21.766;2023-06-04T12:27:27;98775.22;;;22.10;39.30
35226;BME280;21813;49.686;21.766;2023-06-04T12:54:52;98752.59;;;21.70;30.42
35226;BME280;21813;49.686;21.766;2023-06-04T12:57:36;98754.97;;;21.65;31.06
35226;BME280;21813;49.686;21.766;2023-06-04T13:00:03;98762.22;;;21.56;32.26
35226;BME280;21813;49.686;21.766;2023-06-04T13:02:32;98754.81;;;21.52;32.63
35226;BME280;21813;49.686;21.766;2023-06-04T13:05:01;98750.03;;;21.47;31.59
35226;BME280;21813;49.686;21.766;2023-06-04T13:07:26;98749.41;;;21.45;34.30
35226;BME280;21813;49.686;21.766;2023-06-04T13:09:54;98753.63;;;21.54;33.00
35226;BME280;21813;49.686;21.766;2023-06-04T13:12:21;98754.97;;;21.65;32.70
35226;BME280;21813;49.686;21.766;2023-06-04T13:14:49;98753.44;;;21.71;33.74
35226;BME280;21813;49.686;21.766;2023-06-04T13:17:14;98777.22;;;21.79;33.65
35226;BME280;21813;49.686;21.766;2023-06-04T13:19:41;98744.09;;;21.75;31.30
35226;BME280;21813;49.686;21.766;2023-06-04T13:22:07;98766.03;;;21.83;30.19
35226;BME280;21813;49.686;21.766;2023-06-04T13:24:36;98768.63;;;21.77;32.23